Time;durP1;ratioP1;P1;durP2;ratioP2;P2;SDS_P1;SDS_P2;PMS_P1;PMS_P2;Temp;Humidity;BMP_temperature;BMP_pressure;BME280_temperature;BME280_humidity;BME280_pressure;Samples;Min_cycle;Max_cycle;Signal;HPM_P1;HPM_P2
2023/05/14 00:01:41;;;;;;;9.73;4.50;;;11.50;99.90;;;;;;5085364;28;20462;-85
2023/05/14 00:04:07;;;;;;;15.07;5.85;;;11.50;99.90;;;;;;5102706;28;20054;-85
2023/05/14 00:06:32;;;;;;;13.73;5.88;;;11.50;99.90;;;;;;5085475;28;20416;-86
2023/05/14 00:08:58;;;;;;;6.72;5.07;;;11.50;99.90;;;;;;5102128;28;20044;-85
2023/05/14 00:11:24;;;;;;;11.48;5.75;;;11.50;99.90;;;;;;5068308;28;20117;-86
2023/05/14 00:13:50;;;;;;;13.75;4.93;;;11.40;99.90;;;;;;5085386;28;20046;-86
2023/05/14 00:16:15;;;;;;;16.38;6.30;;;11.40;99.90;;;;;;5085036;28;20058;-85
2023/05/14 00:18:41;;;;;;;11.55;4.75;;;11.40;99.90;;;;;;5102145;28;20407;-86
2023/05/14 00:21:07;;;;;;;10.15;5.15;;;11.40;99.90;;;;;;5068071;28;20040;-86
2023/05/14 00:23:32;;;;;;;10.77;5.95;;;11.30;99.90;;;;;;5085062;28;20066;-86
2023/05/14 00:25:58;;;;;;;11.32;5.40;;;11.30;99.90;;;;;;5101896;28;20096;-86
2023/05/14 00:28:24;;;;;;;12.05;5.53;;;11.30;99.90;;;;;;5102291;28;20039;-86
2023/05/14 00:30:50;;;;;;;15.38;5.60;;;11.30;99.90;;;;;;5084868;28;20132;-86
2023/05/14 00:33:16;;;;;;;8.90;4.90;;;11.80;99.90;;;;;;5102280;28;20471;-86
2023/05/14 00:35:41;;;;;;;9.98;5.95;;;11.20;99.90;;;;;;5068051;28;20091;-86
2023/05/14 00:38:09;;;;;;;10.00;6.07;;;11.20;99.90;;;;;;5084918;28;20081;-86
2023/05/14 00:40:35;;;;;;;15.60;6.05;;;11.20;99.90;;;;;;5085027;28;20040;-86
2023/05/14 00:43:00;;;;;;;10.90;6.55;;;11.10;99.90;;;;;;5084820;28;20044;-85
2023/05/14 00:45:27;;;;;;;18.92;5.85;;;11.10;99.90;;;;;;5084952;28;20094;-86
2023/05/14 00:47:53;;;;;;;9.70;5.70;;;11.00;99.90;;;;;;5067858;28;20075;-85
2023/05/14 00:50:19;;;;;;;10.95;5.97;;;11.00;99.90;;;;;;5119498;28;20456;-86
2023/05/14 00:52:46;;;;;;;12.50;5.75;;;11.00;99.90;;;;;;5085285;28;20050;-86
2023/05/14 00:55:15;;;;;;;19.63;5.85;;;11.00;99.90;;;;;;5084762;28;20047;-86
2023/05/14 00:57:41;;;;;;;15.55;6.00;;;11.00;99.90;;;;;;5068639;28;21001;-86
2023/05/14 01:00:07;;;;;;;14.52;5.70;;;11.00;99.90;;;;;;5067912;28;20040;-85
2023/05/14 01:02:33;;;;;;;14.48;5.93;;;10.90;99.90;;;;;;5103451;28;20126;-86
2023/05/14 01:04:59;;;;;;;18.42;5.95;;;10.90;99.90;;;;;;5088382;28;20122;-86
2023/05/14 01:07:32;;;;;;;11.13;5.13;;;10.90;99.90;;;;;;5088395;28;20051;-86
2023/05/14 01:10:00;;;;;;;;;;;10.90;99.90;;;;;;5105749;28;20082;-86
2023/05/14 01:12:50;;;;;;;16.35;4.78;;;10.90;99.90;;;;;;5105411;28;20242;-86
2023/05/14 01:15:30;;;;;;;11.00;4.80;;;10.80;99.90;;;;;;5105790;28;20054;-86
2023/05/14 01:18:02;;;;;;;14.40;5.43;;;10.90;99.90;;;;;;5088330;28;20050;-86
2023/05/14 01:20:28;;;;;;;8.38;5.30;;;10.80;99.90;;;;;;5105585;28;20044;-86
2023/05/14 01:22:54;;;;;;;11.85;5.38;;;10.90;99.90;;;;;;5089947;28;20044;-86
2023/05/14 01:25:19;;;;;;;14.07;5.55;;;10.90;99.90;;;;;;5089463;28;20134;-85
2023/05/14 01:27:55;;;;;;;10.98;4.53;;;10.80;99.90;;;;;;5089605;28;20040;-85
2023/05/14 01:30:29;;;;;;;12.00;5.10;;;10.80;99.90;;;;;;5106190;28;20404;-86
2023/05/14 01:32:59;;;;;;;12.45;4.75;;;10.80;99.90;;;;;;5088931;28;20093;-86
2023/05/14 01:35:29;;;;;;;13.32;4.95;;;10.90;99.90;;;;;;5088614;28;20059;-85
2023/05/14 01:37:58;;;;;;;13.57;7.03;;;10.80;99.90;;;;;;5105610;28;20048;-85
2023/05/14 01:40:25;;;;;;;15.55;5.53;;;10.80;99.90;;;;;;5089580;28;20043;-83
2023/05/14 01:42:51;;;;;;;8.82;4.93;;;11.00;99.90;;;;;;5088013;28;20035;-86
2023/05/14 01:45:20;;;;;;;10.50;4.95;;;10.80;99.90;;;;;;5071038;28;20085;-86
2023/05/14 01:47:46;;;;;;;6.35;4.97;;;11.50;99.90;;;;;;5087573;28;20051;-86
2023/05/14 01:50:11;;;;;;;8.68;4.85;;;10.80;99.90;;;;;;5087279;28;20042;-86
2023/05/14 01:52:37;;;;;;;15.88;5.32;;;11.10;99.90;;;;;;5087625;28;20039;-87
2023/05/14 01:55:04;;;;;;;11.15;4.70;;;10.80;99.90;;;;;;5105180;28;20389;-86
2023/05/14 01:57:30;;;;;;;9.90;4.50;;;10.80;99.90;;;;;;5070923;28;20047;-86
2023/05/14 01:59:55;;;;;;;11.65;5.50;;;10.70;99.90;;;;;;5087585;28;20059;-86
2023/05/14 02:02:21;;;;;;;15.93;5.88;;;10.70;99.90;;;;;;5105432;28;20051;-86
2023/05/14 02:04:47;;;;;;;10.10;5.70;;;10.70;99.90;;;;;;5071039;28;20031;-86
2023/05/14 02:07:13;;;;;;;7.88;5.53;;;10.70;99.90;;;;;;5070442;28;20074;-86
2023/05/14 02:09:40;;;;;;;13.50;5.47;;;10.60;99.90;;;;;;5105254;28;20882;-86
2023/05/14 02:12:07;;;;;;;13.02;5.30;;;10.60;99.90;;;;;;5087677;28;20044;-86
2023/05/14 02:14:33;;;;;;;12.40;7.15;;;10.60;99.90;;;;;;5103982;28;20454;-86
2023/05/14 02:16:58;;;;;;;11.68;6.40;;;10.60;99.90;;;;;;5070561;28;20031;-86
2023/05/14 02:19:24;;;;;;;18.33;7.10;;;10.50;99.90;;;;;;5104091;28;20039;-86
2023/05/14 02:21:50;;;;;;;14.38;6.28;;;10.50;99.90;;;;;;5070029;28;20036;-87
2023/05/14 02:24:15;;;;;;;15.27;7.38;;;10.50;99.90;;;;;;5069965;28;20051;-85
2023/05/14 02:26:41;;;;;;;17.67;7.70;;;10.80;99.90;;;;;;5104233;28;20043;-85
2023/05/14 02:29:07;;;;;;;16.73;8.75;;;10.50;99.90;;;;;;5087208;28;20082;-85
2023/05/14 02:31:33;;;;;;;16.10;9.05;;;10.50;99.90;;;;;;5088164;28;20718;-85
2023/05/14 02:34:00;;;;;;;10.77;8.40;;;10.40;99.90;;;;;;5088152;28;20131;-85
2023/05/14 02:36:26;;;;;;;27.60;9.88;;;10.80;99.90;;;;;;5104311;28;20047;-86
2023/05/14 02:38:52;;;;;;;17.77;8.10;;;11.30;99.90;;;;;;5104532;28;20564;-85
2023/05/14 02:41:18;;;;;;;18.52;8.63;;;10.50;99.90;;;;;;5087439;28;20068;-85
2023/05/14 02:43:43;;;;;;;14.93;7.78;;;10.50;99.90;;;;;;5087410;28;20439;-85
2023/05/14 02:46:09;;;;;;;29.35;10.23;;;10.50;99.90;;;;;;5086493;28;20719;-85
2023/05/14 02:48:35;;;;;;;14.50;9.57;;;10.50;99.90;;;;;;5087894;28;20035;-85
2023/05/14 02:51:01;;;;;;;20.08;9.85;;;10.50;99.90;;;;;;5087363;28;20042;-85
2023/05/14 02:53:27;;;;;;;12.65;7.63;;;10.50;99.90;;;;;;5087497;28;20078;-85
2023/05/14 02:55:53;;;;;;;15.40;7.63;;;10.50;99.90;;;;;;5104306;28;20073;-85
2023/05/14 02:58:18;;;;;;;16.55;8.38;;;10.40;99.90;;;;;;5087118;28;20039;-85
2023/05/14 03:00:44;;;;;;;20.20;8.63;;;10.50;99.90;;;;;;5087196;28;20462;-85
2023/05/14 03:03:10;;;;;;;24.10;9.82;;;10.70;99.90;;;;;;5086600;28;20093;-86
2023/05/14 03:05:35;;;;;;;23.27;9.77;;;11.20;99.90;;;;;;5104370;28;20045;-86
2023/05/14 03:08:01;;;;;;;15.65;9.10;;;10.50;99.90;;;;;;5087086;28;20039;-85
2023/05/14 03:10:27;;;;;;;26.77;8.50;;;10.50;99.90;;;;;;5070541;28;20067;-85
2023/05/14 03:12:53;;;;;;;24.88;9.15;;;10.50;99.90;;;;;;5070826;28;20089;-85
2023/05/14 03:15:18;;;;;;;25.98;9.50;;;10.50;99.90;;;;;;5070339;28;20122;-84
2023/05/14 03:17:44;;;;;;;19.10;9.55;;;10.50;99.90;;;;;;5104177;28;20035;-85
2023/05/14 03:20:11;;;;;;;21.35;9.45;;;10.50;99.90;;;;;;5086157;28;20454;-84
2023/05/14 03:22:37;;;;;;;25.50;10.57;;;10.50;99.90;;;;;;5103862;28;20040;-86
2023/05/14 03:25:03;;;;;;;23.75;10.10;;;10.40;99.90;;;;;;5086423;28;20070;-86
2023/05/14 03:27:28;;;;;;;25.40;10.05;;;10.50;99.90;;;;;;5087089;28;20139;-86
2023/05/14 03:29:54;;;;;;;25.80;9.68;;;10.80;99.90;;;;;;5086759;28;20047;-86
2023/05/14 03:32:20;;;;;;;26.17;10.18;;;10.50;99.90;;;;;;5086389;28;20039;-85
2023/05/14 03:34:45;;;;;;;23.83;10.63;;;10.50;99.90;;;;;;5086622;28;20082;-86
2023/05/14 03:37:11;;;;;;;26.92;10.85;;;10.50;99.90;;;;;;5069367;28;20126;-86
2023/05/14 03:39:37;;;;;;;24.50;12.90;;;10.50;99.90;;;;;;5069482;28;20381;-86
2023/05/14 03:42:03;;;;;;;27.50;11.43;;;10.50;99.90;;;;;;5069217;28;20092;-86
2023/05/14 03:44:28;;;;;;;30.70;11.25;;;10.50;99.90;;;;;;5087353;28;20039;-86
2023/05/14 03:46:54;;;;;;;30.83;12.40;;;10.50;99.90;;;;;;5086307;28;20512;-86
2023/05/14 03:49:20;;;;;;;28.58;11.70;;;10.50;99.90;;;;;;5069303;28;20044;-86
2023/05/14 03:51:46;;;;;;;25.02;10.32;;;10.50;99.90;;;;;;5069471;28;20039;-86
2023/05/14 03:54:12;;;;;;;15.20;10.10;;;11.00;99.90;;;;;;5085945;28;20051;-86
2023/05/14 03:56:37;;;;;;;19.10;10.88;;;10.80;99.90;;;;;;5068874;28;20051;-87
2023/05/14 03:59:03;;;;;;;18.50;10.00;;;10.50;99.90;;;;;;5085611;28;20047;-86
2023/05/14 04:01:28;;;;;;;23.10;10.57;;;11.20;99.90;;;;;;5102929;28;20557;-87
2023/05/14 04:03:54;;;;;;;21.17;9.68;;;10.90;99.90;;;;;;5086157;28;20048;-85
2023/05/14 04:06:20;;;;;;;16.55;8.05;;;10.50;99.90;;;;;;5086025;28;20084;-86
2023/05/14 04:08:45;;;;;;;14.25;7.40;;;10.50;99.90;;;;;;5102485;28;20431;-86
2023/05/14 04:11:11;;;;;;;25.88;7.55;;;10.50;99.90;;;;;;5085840;28;20040;-85
2023/05/14 04:13:37;;;;;;;15.80;6.65;;;10.50;99.90;;;;;;5068529;28;20113;-85
2023/05/14 04:16:03;;;;;;;18.80;8.75;;;10.50;99.90;;;;;;5068400;28;20043;-85
2023/05/14 04:18:28;;;;;;;19.15;6.72;;;10.50;99.90;;;;;;5068726;28;20400;-85
2023/05/14 04:20:54;;;;;;;16.10;6.95;;;10.50;99.90;;;;;;5085114;28;20081;-84
2023/05/14 04:23:20;;;;;;;15.73;6.03;;;10.60;99.90;;;;;;5069370;28;20036;-84
2023/05/14 04:25:46;;;;;;;16.65;6.95;;;10.60;99.90;;;;;;5102924;28;20317;-84
2023/05/14 04:28:12;;;;;;;22.60;5.82;;;10.60;99.90;;;;;;5103007;28;20438;-84
2023/05/14 04:30:37;;;;;;;21.92;6.90;;;10.60;99.90;;;;;;5085630;28;20455;-85
2023/05/14 04:33:03;;;;;;;21.25;6.28;;;10.70;99.90;;;;;;5085611;28;20128;-83
2023/05/14 04:35:29;;;;;;;19.95;6.13;;;10.70;99.90;;;;;;5068774;28;20424;-84
2023/05/14 04:37:54;;;;;;;25.75;7.15;;;10.70;99.90;;;;;;5104084;28;20035;-84
2023/05/14 04:40:21;;;;;;;17.83;6.45;;;11.60;99.90;;;;;;5089679;28;20090;-85
2023/05/14 04:42:47;;;;;;;26.52;8.65;;;10.80;99.90;;;;;;5072579;28;20032;-85
2023/05/14 04:45:13;;;;;;;15.10;7.00;;;10.90;99.90;;;;;;5089059;28;20039;-85
2023/05/14 04:47:39;;;;;;;19.25;6.78;;;10.90;99.90;;;;;;5089864;28;20062;-86
2023/05/14 04:50:05;;;;;;;18.30;6.40;;;11.30;99.90;;;;;;5089312;28;20484;-86
2023/05/14 04:52:31;;;;;;;17.20;6.97;;;11.00;99.90;;;;;;5089422;28;20451;-86
2023/05/14 04:54:57;;;;;;;19.95;6.05;;;11.10;99.90;;;;;;5088007;28;20051;-85
2023/05/14 04:57:23;;;;;;;18.23;6.93;;;11.10;99.90;;;;;;5089049;28;20043;-86
2023/05/14 04:59:49;;;;;;;16.50;6.78;;;12.20;99.90;;;;;;5088500;28;20132;-86
2023/05/14 05:02:14;;;;;;;23.85;6.18;;;11.40;99.90;;;;;;5071875;28;20055;-86
2023/05/14 05:04:40;;;;;;;16.52;6.07;;;11.30;99.90;;;;;;5072545;28;20042;-84
2023/05/14 05:07:06;;;;;;;26.88;6.82;;;11.30;99.90;;;;;;5106273;28;20039;-87
2023/05/14 05:09:31;;;;;;;20.13;5.85;;;11.40;99.90;;;;;;5106779;27;20519;-86
2023/05/14 05:11:57;;;;;;;21.85;8.38;;;11.40;99.90;;;;;;5088021;28;20468;-87
2023/05/14 05:14:23;;;;;;;20.77;7.80;;;11.50;99.90;;;;;;5106564;28;20089;-86
2023/05/14 05:16:50;;;;;;;21.17;6.95;;;11.60;99.90;;;;;;5088609;28;20044;-86
2023/05/14 05:19:15;;;;;;;17.33;6.25;;;11.60;99.90;;;;;;5105681;28;20532;-86
2023/05/14 05:21:41;;;;;;;25.20;6.15;;;11.70;99.90;;;;;;5088720;28;20154;-85
2023/05/14 05:24:07;;;;;;;18.23;6.75;;;11.80;99.90;;;;;;5071637;28;20047;-86
2023/05/14 05:26:35;;;;;;;22.60;7.40;;;11.90;99.90;;;;;;5105506;28;20099;-86
2023/05/14 05:29:03;;;;;;;33.78;7.60;;;12.00;99.90;;;;;;5071942;28;20124;-85
2023/05/14 05:31:29;;;;;;;15.80;7.55;;;12.10;99.90;;;;;;5089142;28;20047;-85
2023/05/14 05:33:55;;;;;;;20.08;7.80;;;12.20;99.90;;;;;;5088216;28;20043;-84
2023/05/14 05:36:21;;;;;;;19.85;8.30;;;12.20;99.90;;;;;;5105564;28;20044;-85
2023/05/14 05:38:46;;;;;;;15.70;6.38;;;12.40;99.90;;;;;;5088438;28;20048;-85
2023/05/14 05:41:12;;;;;;;18.42;7.20;;;12.40;99.90;;;;;;5105953;28;20039;-85
2023/05/14 05:43:38;;;;;;;16.77;6.28;;;12.50;99.90;;;;;;5088966;28;20035;-85
2023/05/14 05:46:03;;;;;;;21.50;7.25;;;12.60;99.90;;;;;;5070656;28;20040;-87
2023/05/14 05:48:29;;;;;;;21.13;6.32;;;12.70;99.90;;;;;;5105352;28;20318;-85
2023/05/14 05:50:55;;;;;;;18.15;6.22;;;12.70;99.90;;;;;;5088037;28;20051;-85
2023/05/14 05:53:20;;;;;;;17.50;6.20;;;12.80;99.90;;;;;;5104836;28;20514;-87
2023/05/14 05:55:46;;;;;;;20.27;6.03;;;12.80;99.90;;;;;;5104510;28;20080;-88
2023/05/14 05:58:14;;;;;;;18.13;5.80;;;12.90;99.90;;;;;;5070605;28;20043;-86
2023/05/14 06:00:40;;;;;;;16.08;6.10;;;13.00;99.90;;;;;;5072076;28;20051;-87
2023/05/14 06:03:06;;;;;;;17.15;5.22;;;13.20;99.90;;;;;;5087566;28;20073;-86
2023/05/14 06:05:32;;;;;;;17.58;5.20;;;13.30;99.90;;;;;;5088677;28;20122;-86
2023/05/14 06:07:57;;;;;;;13.50;4.63;;;13.50;99.90;;;;;;5087590;28;20047;-86
2023/05/14 06:10:23;;;;;;;12.65;5.13;;;13.50;99.90;;;;;;5071621;28;20035;-85
2023/05/14 06:12:49;;;;;;;18.42;5.53;;;13.70;99.90;;;;;;5104776;28;20047;-86
2023/05/14 06:15:14;;;;;;;16.63;4.32;;;13.80;99.90;;;;;;5105769;28;20036;-87
2023/05/14 06:17:40;;;;;;;12.68;4.03;;;14.00;99.90;;;;;;5088246;28;20500;-86
2023/05/14 06:20:10;;;;;;;18.70;4.68;;;14.20;99.90;;;;;;5087752;28;20048;-85
2023/05/14 06:22:36;;;;;;;24.13;5.50;;;14.40;99.90;;;;;;5087833;28;20044;-85
2023/05/14 06:25:02;;;;;;;18.80;4.25;;;14.60;99.90;;;;;;5087582;28;20096;-86
2023/05/14 06:27:28;;;;;;;17.30;4.10;;;14.70;99.90;;;;;;5087981;28;20500;-86
2023/05/14 06:29:54;;;;;;;17.63;4.90;;;14.80;99.90;;;;;;5104784;28;20055;-87
2023/05/14 06:32:19;;;;;;;8.57;4.13;;;14.90;99.90;;;;;;5071183;28;20039;-87
2023/05/14 06:34:45;;;;;;;17.27;4.65;;;15.10;99.90;;;;;;5088900;28;20039;-85
2023/05/14 06:37:11;;;;;;;11.75;3.60;;;15.20;99.90;;;;;;5075241;28;20065;-87
2023/05/14 06:39:38;;;;;;;17.48;4.00;;;15.30;99.90;;;;;;5108648;28;20514;-85
2023/05/14 06:42:04;;;;;;;12.65;3.20;;;15.40;99.90;;;;;;5104806;28;20040;-86
2023/05/14 06:44:30;;;;;;;12.20;3.97;;;15.40;99.90;;;;;;5089364;28;20108;-86
2023/05/14 06:46:56;;;;;;;26.88;5.57;;;15.40;99.90;;;;;;5088146;28;20086;-86
2023/05/14 06:49:22;;;;;;;13.65;3.35;;;15.40;99.90;;;;;;5088948;28;20040;-87
2023/05/14 06:51:47;;;;;;;12.13;4.28;;;15.50;99.90;;;;;;5089473;28;20507;-87
2023/05/14 06:54:13;;;;;;;12.30;4.03;;;15.50;99.90;;;;;;5088548;28;20123;-86
2023/05/14 06:56:39;;;;;;;18.17;4.10;;;15.60;99.90;;;;;;5105194;28;20035;-84
2023/05/14 06:59:05;;;;;;;14.18;3.70;;;15.60;99.90;;;;;;5087603;28;20039;-87
2023/05/14 07:01:30;;;;;;;15.88;3.90;;;15.70;99.90;;;;;;5087185;28;20071;-86
2023/05/14 07:03:56;;;;;;;11.68;4.18;;;15.80;99.90;;;;;;5087648;28;20112;-89
2023/05/14 07:06:22;;;;;;;13.77;4.18;;;15.80;99.90;;;;;;5106385;28;20122;-88
2023/05/14 07:08:48;;;;;;;19.85;4.90;;;15.80;99.90;;;;;;5088185;28;20032;-87
2023/05/14 07:11:14;;;;;;;24.73;4.20;;;15.90;99.90;;;;;;5088736;28;20109;-86
2023/05/14 07:13:40;;;;;;;11.32;4.47;;;16.90;99.90;;;;;;5088031;28;20047;-87
2023/05/14 07:16:09;;;;;;;15.65;4.32;;;16.00;99.90;;;;;;5087924;28;20039;-87
2023/05/14 07:18:35;;;;;;;11.82;5.80;;;16.00;99.90;;;;;;5087888;28;20100;-87
2023/05/14 07:21:01;;;;;;;18.77;4.32;;;16.00;99.90;;;;;;5086736;28;20044;-87
2023/05/14 07:23:27;;;;;;;11.60;4.35;;;16.10;99.90;;;;;;5086927;28;20054;-88
2023/05/14 07:25:53;;;;;;;8.68;3.58;;;16.30;99.90;;;;;;5087013;28;20050;-88
2023/05/14 07:28:18;;;;;;;12.10;3.90;;;16.40;99.90;;;;;;5104569;28;20555;-88
2023/05/14 07:30:44;;;;;;;14.45;4.47;;;16.40;99.90;;;;;;5070510;28;20047;-88
2023/05/14 07:33:10;;;;;;;10.43;3.97;;;16.40;99.90;;;;;;5070595;28;20065;-88
2023/05/14 07:35:35;;;;;;;18.80;4.80;;;16.40;99.90;;;;;;5089639;28;20051;-88
2023/05/14 07:38:01;;;;;;;12.73;4.50;;;16.30;99.90;;;;;;5087364;28;20518;-88
2023/05/14 07:40:27;;;;;;;15.45;4.63;;;16.30;99.90;;;;;;5072306;28;20043;-87
2023/05/14 07:42:53;;;;;;;18.58;4.70;;;16.30;99.90;;;;;;5088550;28;20068;-88
2023/05/14 07:45:19;;;;;;;19.52;4.47;;;16.20;99.90;;;;;;5071475;28;20044;-88
2023/05/14 07:47:44;;;;;;;11.80;4.20;;;16.20;99.90;;;;;;5088470;28;20118;-88
2023/05/14 07:50:11;;;;;;;12.23;3.78;;;16.20;99.90;;;;;;5106041;28;20049;-90
2023/05/14 07:52:37;;;;;;;13.88;4.05;;;16.20;99.90;;;;;;5073240;28;20069;-89
2023/05/14 07:55:03;;;;;;;20.63;4.35;;;16.20;99.90;;;;;;5074034;28;20039;-88
2023/05/14 07:57:28;;;;;;;11.98;3.95;;;16.10;99.90;;;;;;5090407;28;20043;-89
2023/05/14 07:59:56;;;;;;;14.63;4.10;;;16.00;99.90;;;;;;5108269;28;20127;-93
2023/05/14 08:02:21;;;;;;;14.02;4.05;;;16.00;99.90;;;;;;5090318;28;20133;-92
2023/05/14 08:04:47;;;;;;;14.30;4.43;;;16.10;99.90;;;;;;5106881;28;20043;-89
2023/05/14 08:07:13;;;;;;;15.48;5.57;;;16.10;99.90;;;;;;5091062;28;20040;-92
2023/05/14 08:09:38;;;;;;;19.38;4.43;;;16.20;99.90;;;;;;5091499;28;20072;-89
2023/05/14 08:12:05;;;;;;;13.98;4.25;;;16.30;99.90;;;;;;5094329;28;20046;-94
2023/05/14 08:14:30;;;;;;;12.50;7.07;;;16.40;99.90;;;;;;5080279;28;20043;-90
2023/05/14 08:16:56;;;;;;;14.00;5.03;;;16.70;99.90;;;;;;5095977;28;20078;-89
2023/05/14 08:19:23;;;;;;;17.85;4.85;;;16.90;99.90;;;;;;5077678;28;20475;-89
2023/05/14 08:21:50;;;;;;;17.48;3.78;;;17.10;99.90;;;;;;5111896;28;20462;-90
2023/05/14 08:24:16;;;;;;;14.10;4.30;;;17.20;99.90;;;;;;5110851;28;20244;-87
2023/05/14 08:26:41;;;;;;;7.95;3.47;;;17.20;99.90;;;;;;5094546;28;20077;-89
2023/05/14 08:29:07;;;;;;;12.85;4.25;;;17.30;99.90;;;;;;5093948;28;20043;-87
2023/05/14 08:31:33;;;;;;;11.13;3.65;;;17.50;99.90;;;;;;5095366;28;20047;-89
2023/05/14 08:33:58;;;;;;;10.65;3.92;;;17.50;99.90;;;;;;5093426;28;20111;-88
2023/05/14 08:36:24;;;;;;;16.77;4.10;;;17.60;99.90;;;;;;5076983;28;20055;-90
2023/05/14 08:38:50;;;;;;;9.35;3.85;;;17.70;99.90;;;;;;5076829;28;20036;-89
2023/05/14 08:41:16;;;;;;;8.82;3.50;;;17.70;99.90;;;;;;5078396;28;20112;-90
2023/05/14 08:43:48;;;;;;;9.45;4.05;;;17.70;99.90;;;;;;5095260;28;20051;-90
2023/05/14 08:46:16;;;;;;;13.33;4.93;;;17.80;99.90;;;;;;5093274;28;20105;-90
2023/05/14 08:48:46;;;;;;;16.52;5.13;;;17.70;99.90;;;;;;5093823;28;20047;-90
2023/05/14 08:51:12;;;;;;;11.90;4.32;;;17.70;99.90;;;;;;5109919;28;20437;-91
2023/05/14 08:53:39;;;;;;;13.77;4.07;;;18.20;99.90;;;;;;5108471;28;20094;-90
2023/05/14 08:56:07;;;;;;;12.95;3.60;;;17.90;99.90;;;;;;5091200;28;20457;-90
2023/05/14 08:58:33;;;;;;;19.90;4.30;;;18.00;99.90;;;;;;5108185;28;20063;-91
2023/05/14 09:00:59;;;;;;;18.85;4.35;;;18.20;99.90;;;;;;5075726;28;20512;-90
2023/05/14 09:03:25;;;;;;;11.40;5.25;;;18.40;99.90;;;;;;5077414;28;20126;-91
2023/05/14 09:05:51;;;;;;;19.75;4.32;;;18.40;99.90;;;;;;5111237;28;20127;-90
2023/05/14 09:08:18;;;;;;;8.98;4.00;;;18.60;99.90;;;;;;5077169;28;20039;-91
2023/05/14 09:10:43;;;;;;;14.77;4.03;;;18.70;99.90;;;;;;5093601;28;20058;-90
2023/05/14 09:13:09;;;;;;;13.43;4.13;;;18.80;99.90;;;;;;5090166;28;20036;-90
2023/05/14 09:15:36;;;;;;;13.55;4.20;;;18.80;99.90;;;;;;5090306;28;20062;-90
2023/05/14 09:18:04;;;;;;;14.05;4.20;;;18.80;99.90;;;;;;5073284;28;20039;-90
2023/05/14 09:20:31;;;;;;;13.10;4.95;;;18.80;99.90;;;;;;5090050;28;20115;-90
